Time;durP1;ratioP1;P1;durP2;ratioP2;P2;SDS_P1;SDS_P2;PMS_P1;PMS_P2;Temp;Humidity;BMP_temperature;BMP_pressure;BME280_temperature;BME280_humidity;BME280_pressure;Samples;Min_cycle;Max_cycle;Signal;HPM_P1;HPM_P2
2022/01/04 00:00:21;;;;;;;23.80;8.80;;;7.80;99.90;;;;;;5116179;28;20043;-67
2022/01/04 00:02:46;;;;;;;22.40;8.75;;;7.80;99.90;;;;;;5096116;28;20047;-67
2022/01/04 00:05:12;;;;;;;21.23;8.27;;;7.70;99.90;;;;;;5096146;28;20047;-67
2022/01/04 00:07:38;;;;;;;24.48;9.30;;;7.70;99.90;;;;;;5113260;28;20483;-67
2022/01/04 00:10:07;;;;;;;24.70;8.50;;;7.70;99.90;;;;;;5095199;28;20500;-67
2022/01/04 00:15:18;;;;;;;23.10;9.45;;;7.70;99.90;;;;;;5133531;28;20361;-67
2022/01/04 00:17:44;;;;;;;21.73;8.77;;;7.70;99.90;;;;;;5133755;28;20043;-67
2022/01/04 00:20:11;;;;;;;22.02;8.90;;;7.80;99.90;;;;;;5133825;28;20132;-67
2022/01/04 00:22:37;;;;;;;18.23;8.68;;;7.70;99.90;;;;;;5133290;28;20031;-67
2022/01/04 00:25:04;;;;;;;22.33;8.95;;;7.70;99.90;;;;;;5134049;28;20504;-67
2022/01/04 00:27:30;;;;;;;19.38;8.98;;;7.60;99.90;;;;;;5115639;28;20051;-68
2022/01/04 00:29:56;;;;;;;27.63;9.98;;;7.70;99.90;;;;;;5133766;28;20095;-67
2022/01/04 00:32:22;;;;;;;23.55;9.15;;;7.70;99.90;;;;;;5114625;28;20054;-67
2022/01/04 00:34:47;;;;;;;22.80;8.73;;;7.70;99.90;;;;;;5116248;28;20045;-67
2022/01/04 00:37:13;;;;;;;21.27;8.95;;;7.70;99.90;;;;;;5115649;28;20071;-67
2022/01/04 00:39:39;;;;;;;24.27;8.45;;;7.70;99.90;;;;;;5133140;28;20039;-67
2022/01/04 00:42:05;;;;;;;27.33;8.80;;;7.70;99.90;;;;;;5133240;28;20032;-67
2022/01/04 00:44:30;;;;;;;19.73;8.57;;;7.70;99.90;;;;;;5116089;28;20058;-68
2022/01/04 00:46:56;;;;;;;23.50;9.30;;;7.70;99.90;;;;;;5133581;28;20447;-67
2022/01/04 00:49:22;;;;;;;22.42;9.07;;;7.70;99.90;;;;;;5133498;28;20053;-67
2022/01/04 00:51:52;;;;;;;20.75;9.35;;;7.70;99.90;;;;;;5115082;28;20147;-67
2022/01/04 00:54:19;;;;;;;19.77;9.52;;;7.70;99.90;;;;;;5115368;28;20073;-67
2022/01/04 00:56:46;;;;;;;20.15;9.95;;;7.70;99.90;;;;;;5115360;28;20084;-67
2022/01/04 00:59:12;;;;;;;25.17;10.18;;;7.70;99.90;;;;;;5115664;27;20054;-68
2022/01/04 01:01:39;;;;;;;25.58;10.43;;;7.70;99.90;;;;;;5118254;27;20039;-67
2022/01/04 01:04:05;;;;;;;25.20;9.80;;;7.70;99.90;;;;;;5119044;27;20027;-68
2022/01/04 01:06:31;;;;;;;30.95;10.93;;;7.70;99.90;;;;;;5119128;27;20100;-67
2022/01/04 01:08:57;;;;;;;27.92;11.65;;;7.70;99.90;;;;;;5136586;27;20488;-67
2022/01/04 01:11:22;;;;;;;24.45;11.30;;;7.70;99.90;;;;;;5136136;27;20039;-67
2022/01/04 01:13:48;;;;;;;27.17;11.43;;;7.70;99.90;;;;;;5118995;27;20094;-67
2022/01/04 01:16:14;;;;;;;28.20;11.90;;;7.70;99.90;;;;;;5137288;27;20123;-67
2022/01/04 01:18:40;;;;;;;21.35;11.13;;;7.70;99.90;;;;;;5136716;27;20070;-67
2022/01/04 01:21:09;;;;;;;23.27;11.52;;;7.70;99.90;;;;;;5131283;27;20387;-67
2022/01/04 01:23:36;;;;;;;26.25;11.98;;;7.70;99.90;;;;;;5116544;28;20031;-67
2022/01/04 01:26:04;;;;;;;28.40;11.63;;;7.70;99.90;;;;;;5098515;28;20460;-67
2022/01/04 01:28:31;;;;;;;24.13;12.18;;;7.70;99.90;;;;;;5115965;28;20101;-67
2022/01/04 01:30:57;;;;;;;29.35;12.55;;;7.60;99.90;;;;;;5101306;27;20452;-67
2022/01/04 01:33:24;;;;;;;25.20;12.32;;;7.70;99.90;;;;;;5136568;27;20043;-67
2022/01/04 01:35:50;;;;;;;25.63;12.02;;;7.60;99.90;;;;;;5118452;27;20114;-67
2022/01/04 01:38:17;;;;;;;24.60;11.48;;;7.70;99.90;;;;;;5136530;27;20118;-67
2022/01/04 01:40:43;;;;;;;25.98;13.10;;;7.70;99.90;;;;;;5135337;27;20039;-67
2022/01/04 01:43:13;;;;;;;27.15;12.20;;;7.70;99.90;;;;;;5098599;28;20039;-67
2022/01/04 01:45:39;;;;;;;27.83;12.60;;;7.70;99.90;;;;;;5116021;28;20032;-67
2022/01/04 01:48:06;;;;;;;29.92;13.18;;;7.70;99.90;;;;;;5097783;28;20433;-67
2022/01/04 01:50:33;;;;;;;30.88;12.43;;;7.70;99.90;;;;;;5098103;27;20206;-68
2022/01/04 01:52:59;;;;;;;26.88;13.82;;;7.70;99.90;;;;;;5117550;27;20043;-67
2022/01/04 01:55:26;;;;;;;26.27;11.98;;;7.80;99.90;;;;;;5118202;27;20075;-67
2022/01/04 01:57:52;;;;;;;27.27;13.75;;;7.70;99.90;;;;;;5135647;27;20054;-67
2022/01/04 02:00:20;;;;;;;28.30;12.70;;;7.70;99.90;;;;;;5136653;27;20046;-67
2022/01/04 02:02:49;;;;;;;28.60;13.30;;;7.70;99.90;;;;;;5135952;27;20035;-67
2022/01/04 02:05:15;;;;;;;29.33;13.07;;;7.70;99.90;;;;;;5117816;27;20171;-67
2022/01/04 02:07:42;;;;;;;28.00;13.35;;;7.80;99.90;;;;;;5117785;27;20039;-66
2022/01/04 02:10:08;;;;;;;27.80;13.18;;;7.80;99.90;;;;;;5117541;27;20042;-67
2022/01/04 02:12:44;;;;;;;25.08;13.30;;;7.80;99.90;;;;;;5134652;27;20114;-67
2022/01/04 02:15:11;;;;;;;26.88;12.73;;;7.90;99.90;;;;;;5135737;27;20130;-67
2022/01/04 02:17:37;;;;;;;27.67;13.07;;;7.90;99.90;;;;;;5135508;27;20444;-67
2022/01/04 02:20:04;;;;;;;25.40;12.15;;;7.90;99.90;;;;;;5117665;27;20484;-68
2022/01/04 02:22:31;;;;;;;28.85;13.35;;;7.90;99.90;;;;;;5117329;27;20100;-67
2022/01/04 02:24:57;;;;;;;25.65;12.32;;;7.90;99.90;;;;;;5135636;27;20344;-67
2022/01/04 02:27:24;;;;;;;25.67;13.55;;;7.90;99.90;;;;;;5134277;27;20051;-67
2022/01/04 02:29:51;;;;;;;26.48;12.18;;;8.00;99.90;;;;;;5117346;27;20072;-67
2022/01/04 02:32:17;;;;;;;22.33;12.60;;;8.00;99.90;;;;;;5117301;27;20039;-67
2022/01/04 02:34:48;;;;;;;32.00;13.82;;;8.00;99.90;;;;;;5136169;27;20038;-67
2022/01/04 02:37:17;;;;;;;23.33;13.25;;;8.00;99.90;;;;;;5135577;27;20108;-67
2022/01/04 02:39:42;;;;;;;23.85;12.18;;;8.00;99.90;;;;;;5116739;27;20451;-67
2022/01/04 02:42:08;;;;;;;26.35;13.20;;;8.00;99.90;;;;;;5134977;27;20121;-67
2022/01/04 02:44:36;;;;;;;32.78;13.00;;;8.00;99.90;;;;;;5117909;27;20094;-67
2022/01/04 02:47:02;;;;;;;25.80;12.95;;;8.00;99.90;;;;;;5135368;27;20424;-67
2022/01/04 02:49:28;;;;;;;28.23;13.65;;;8.00;99.90;;;;;;5135265;27;20035;-67
2022/01/04 02:51:54;;;;;;;25.98;14.02;;;8.00;99.90;;;;;;5116414;27;20081;-67
2022/01/04 02:54:19;;;;;;;30.35;13.20;;;8.00;99.90;;;;;;5117024;27;20121;-67
2022/01/04 02:56:45;;;;;;;25.02;13.20;;;8.10;99.90;;;;;;5116958;27;20039;-67
2022/01/04 02:59:12;;;;;;;30.23;13.38;;;8.10;99.90;;;;;;5134579;27;20074;-68
2022/01/04 03:01:37;;;;;;;27.13;12.65;;;8.10;99.90;;;;;;5116407;27;20031;-67
2022/01/04 03:04:03;;;;;;;32.80;13.38;;;8.10;99.90;;;;;;5135126;27;20108;-68
2022/01/04 03:06:28;;;;;;;24.48;13.32;;;8.10;99.90;;;;;;5135385;27;20031;-67
2022/01/04 03:08:54;;;;;;;28.58;13.27;;;8.10;99.90;;;;;;5116447;27;20046;-67
2022/01/04 03:11:20;;;;;;;28.05;14.13;;;8.10;99.90;;;;;;5134426;27;20035;-67
2022/01/04 03:13:46;;;;;;;29.00;13.85;;;8.10;99.90;;;;;;5134841;27;20051;-67
2022/01/04 03:16:12;;;;;;;27.50;12.85;;;8.20;99.90;;;;;;5116771;27;20047;-67
2022/01/04 03:18:52;;;;;;;23.88;13.10;;;8.20;99.90;;;;;;5116266;27;20039;-67
2022/01/04 03:21:18;;;;;;;22.83;13.32;;;8.20;99.90;;;;;;5115442;27;20083;-67
2022/01/04 03:23:43;;;;;;;23.33;12.57;;;8.20;99.90;;;;;;5134961;27;20113;-67
2022/01/04 03:26:09;;;;;;;27.02;14.02;;;8.20;99.90;;;;;;5134495;27;20348;-67
2022/01/04 03:28:35;;;;;;;24.83;13.38;;;8.20;99.90;;;;;;5134459;27;20035;-67
2022/01/04 03:31:01;;;;;;;29.98;14.13;;;8.20;99.90;;;;;;5134192;27;20050;-67
2022/01/04 03:33:26;;;;;;;30.33;13.63;;;8.20;99.90;;;;;;5134301;27;20038;-67
2022/01/04 03:35:52;;;;;;;25.48;13.27;;;8.20;99.90;;;;;;5116386;27;20043;-67
2022/01/04 03:38:19;;;;;;;27.60;14.25;;;8.20;99.90;;;;;;5116081;27;20046;-67
2022/01/04 03:40:44;;;;;;;28.80;14.32;;;8.30;99.90;;;;;;5133821;27;20054;-67
2022/01/04 03:43:10;;;;;;;25.65;13.50;;;8.30;99.90;;;;;;5134521;27;20460;-68
2022/01/04 03:45:35;;;;;;;25.10;13.18;;;8.30;99.90;;;;;;5116484;28;20046;-67
2022/01/04 03:48:01;;;;;;;21.20;12.45;;;8.20;99.90;;;;;;5133987;27;20047;-67
2022/01/04 03:50:27;;;;;;;27.92;13.27;;;8.20;99.90;;;;;;5116317;27;20071;-67
2022/01/04 03:52:52;;;;;;;25.88;14.02;;;8.20;99.90;;;;;;5134106;27;20085;-67
2022/01/04 03:55:18;;;;;;;25.65;13.38;;;8.20;99.90;;;;;;5116078;27;20364;-67
2022/01/04 03:57:44;;;;;;;29.05;13.38;;;8.20;99.90;;;;;;5115406;27;20043;-67
2022/01/04 04:00:10;;;;;;;28.25;13.38;;;8.20;99.90;;;;;;5134366;27;20043;-67
2022/01/04 04:02:35;;;;;;;25.45;14.30;;;8.20;99.90;;;;;;5115522;28;20039;-67
2022/01/04 04:05:01;;;;;;;22.52;13.95;;;8.30;99.90;;;;;;5134332;28;20111;-67
2022/01/04 04:07:26;;;;;;;27.83;14.95;;;8.40;99.90;;;;;;5133484;28;20402;-67
2022/01/04 04:09:52;;;;;;;27.65;13.88;;;8.30;99.90;;;;;;5098870;28;20047;-68
2022/01/04 04:12:18;;;;;;;27.27;14.50;;;8.30;99.90;;;;;;5114747;28;20047;-67
2022/01/04 04:14:43;;;;;;;25.23;12.80;;;8.30;99.90;;;;;;5115753;28;20055;-67
2022/01/04 04:17:09;;;;;;;24.88;13.07;;;8.30;99.90;;;;;;5133812;28;20053;-67
2022/01/04 04:19:35;;;;;;;19.90;11.35;;;8.30;99.90;;;;;;5134073;28;20452;-67
2022/01/04 04:22:00;;;;;;;30.17;12.93;;;8.30;99.90;;;;;;5133913;28;20042;-67
2022/01/04 04:24:26;;;;;;;24.35;12.68;;;8.20;99.90;;;;;;5133977;28;20467;-67
2022/01/04 04:26:52;;;;;;;23.48;12.57;;;8.20;99.90;;;;;;5133834;28;20086;-67
2022/01/04 04:29:17;;;;;;;25.40;12.50;;;8.30;99.90;;;;;;5115596;28;20035;-67
2022/01/04 04:31:43;;;;;;;24.17;12.05;;;8.30;99.90;;;;;;5132549;28;20042;-67
2022/01/04 04:34:09;;;;;;;25.05;13.15;;;8.30;99.90;;;;;;5117123;27;20139;-67
2022/01/04 04:36:34;;;;;;;26.35;13.23;;;8.20;99.90;;;;;;5102834;27;20042;-67
2022/01/04 04:39:00;;;;;;;25.38;13.75;;;8.30;99.90;;;;;;5137397;27;20065;-67
2022/01/04 04:41:26;;;;;;;25.55;13.57;;;8.30;99.90;;;;;;5119110;27;20074;-67
2022/01/04 04:43:54;;;;;;;24.48;14.32;;;8.30;99.90;;;;;;5119437;27;20551;-67
2022/01/04 04:46:20;;;;;;;24.65;15.07;;;8.30;99.90;;;;;;5119494;27;20483;-67
2022/01/04 04:48:46;;;;;;;26.75;15.18;;;8.40;99.90;;;;;;5119705;27;20047;-66
2022/01/04 04:51:12;;;;;;;25.52;15.07;;;8.40;99.90;;;;;;5137164;27;20420;-68
2022/01/04 04:53:37;;;;;;;24.13;15.30;;;8.40;99.90;;;;;;5137418;27;20162;-67
2022/01/04 04:56:03;;;;;;;28.98;15.55;;;8.40;99.90;;;;;;5137464;27;20363;-67
2022/01/04 04:58:29;;;;;;;29.70;15.70;;;8.40;99.90;;;;;;5137001;27;20039;-67
2022/01/04 05:00:54;;;;;;;24.85;14.05;;;8.40;99.90;;;;;;5118923;27;20092;-67
2022/01/04 05:03:20;;;;;;;26.73;14.85;;;8.40;99.90;;;;;;5119333;27;20496;-67
2022/01/04 05:05:46;;;;;;;27.33;15.48;;;8.40;99.90;;;;;;5119704;27;20046;-66
2022/01/04 05:08:12;;;;;;;26.52;14.80;;;8.40;99.90;;;;;;5118793;27;20082;-68
2022/01/04 05:10:37;;;;;;;26.17;15.48;;;8.40;99.90;;;;;;5137263;27;20081;-67
2022/01/04 05:13:03;;;;;;;24.60;14.00;;;8.50;99.90;;;;;;5136988;27;20435;-67
2022/01/04 05:15:28;;;;;;;26.27;15.23;;;8.40;99.90;;;;;;5118852;27;20467;-67
2022/01/04 05:17:54;;;;;;;23.83;14.20;;;8.30;99.90;;;;;;5136411;27;20063;-67
2022/01/04 05:20:20;;;;;;;26.05;15.68;;;8.40;99.90;;;;;;5119111;27;20051;-68
2022/01/04 05:22:45;;;;;;;27.83;15.10;;;8.40;99.90;;;;;;5118247;27;20127;-69
2022/01/04 05:25:11;;;;;;;26.45;15.30;;;8.30;99.90;;;;;;5137149;27;20151;-67
2022/01/04 05:27:37;;;;;;;24.42;15.25;;;8.30;99.90;;;;;;5136945;27;20503;-67
2022/01/04 05:30:04;;;;;;;24.60;15.50;;;8.40;99.90;;;;;;5137319;27;20111;-68
2022/01/04 05:32:30;;;;;;;26.70;15.85;;;8.30;99.90;;;;;;5136296;27;20361;-68
2022/01/04 05:34:57;;;;;;;25.63;14.88;;;8.30;99.90;;;;;;5137065;27;20035;-67
2022/01/04 05:37:22;;;;;;;27.65;15.13;;;8.30;99.90;;;;;;5136027;27;20039;-68
2022/01/04 05:39:48;;;;;;;22.42;14.18;;;8.30;99.90;;;;;;5137006;27;20032;-68
2022/01/04 05:42:14;;;;;;;25.60;14.95;;;8.30;99.90;;;;;;5136271;27;20050;-68
2022/01/04 05:44:39;;;;;;;27.85;15.05;;;8.30;99.90;;;;;;5136830;27;20027;-67
2022/01/04 05:47:06;;;;;;;27.90;15.18;;;8.30;99.90;;;;;;5135995;27;20432;-68
2022/01/04 05:49:34;;;;;;;28.20;16.58;;;8.20;99.90;;;;;;5136411;27;20480;-67
2022/01/04 05:52:00;;;;;;;25.08;16.10;;;8.20;99.90;;;;;;5117292;27;20050;-68
2022/01/04 05:54:27;;;;;;;27.30;15.85;;;8.40;99.90;;;;;;5118083;27;20357;-68
2022/01/04 05:56:54;;;;;;;27.08;16.02;;;8.30;99.90;;;;;;5116489;27;20372;-68
2022/01/04 05:59:20;;;;;;;22.83;15.00;;;8.20;99.90;;;;;;5096601;28;20032;-68
2022/01/04 06:01:45;;;;;;;31.95;16.40;;;8.20;99.90;;;;;;5116879;27;20444;-68
2022/01/04 06:04:11;;;;;;;26.88;15.75;;;8.20;99.90;;;;;;5115299;27;20024;-67
2022/01/04 06:06:40;;;;;;;25.30;15.98;;;8.10;99.90;;;;;;5115524;27;20036;-67
2022/01/04 06:09:07;;;;;;;27.48;17.70;;;8.20;99.90;;;;;;5114588;27;20035;-68
2022/01/04 06:17:00;;;;;;;36.92;18.20;;;8.10;99.90;;;;;;5135515;27;20111;-67
2022/01/04 06:19:26;;;;;;;26.55;17.35;;;8.20;99.90;;;;;;5135411;27;20530;-67
2022/01/04 06:21:51;;;;;;;30.13;17.20;;;8.10;99.90;;;;;;5116758;27;20110;-66
2022/01/04 06:24:17;;;;;;;31.42;19.10;;;8.20;99.90;;;;;;5135744;27;20042;-67
2022/01/04 06:26:43;;;;;;;29.77;17.85;;;8.10;99.90;;;;;;5135495;27;20096;-66
2022/01/04 06:29:11;;;;;;;30.83;18.48;;;8.10;99.90;;;;;;5135135;27;20095;-66
2022/01/04 06:31:39;;;;;;;27.65;17.27;;;8.10;99.90;;;;;;5115845;27;20043;-66
2022/01/04 06:34:05;;;;;;;32.25;18.00;;;8.20;99.90;;;;;;5117374;27;20045;-67
2022/01/04 06:36:30;;;;;;;29.52;18.98;;;8.20;99.90;;;;;;5136069;27;20042;-66
2022/01/04 06:38:56;;;;;;;28.50;18.73;;;8.10;99.90;;;;;;5135010;27;20039;-67
2022/01/04 06:41:23;;;;;;;31.95;18.88;;;8.10;99.90;;;;;;5116580;27;20039;-67
2022/01/04 06:43:48;;;;;;;30.98;18.58;;;8.10;99.90;;;;;;5116728;27;20402;-67
2022/01/04 06:46:14;;;;;;;30.70;18.55;;;8.20;99.90;;;;;;5135403;27;20031;-68
2022/01/04 06:48:41;;;;;;;35.15;19.48;;;8.10;99.90;;;;;;5135029;27;20425;-67
2022/01/04 06:51:07;;;;;;;30.85;18.73;;;8.10;99.90;;;;;;5134230;27;20420;-68
2022/01/04 06:53:33;;;;;;;27.92;18.17;;;8.10;99.90;;;;;;5116879;27;20139;-69
2022/01/04 06:55:58;;;;;;;31.10;18.13;;;8.20;99.90;;;;;;5133885;27;20126;-68
2022/01/04 06:58:24;;;;;;;33.38;19.88;;;8.20;99.90;;;;;;5113789;28;20341;-68
2022/01/04 07:00:50;;;;;;;30.35;19.63;;;8.20;99.90;;;;;;5097239;27;20048;-65
2022/01/04 07:03:15;;;;;;;29.40;18.17;;;8.20;99.90;;;;;;5121592;27;20042;-66
2022/01/04 07:05:42;;;;;;;25.67;18.80;;;8.20;99.90;;;;;;5134636;27;20523;-67
2022/01/04 07:08:09;;;;;;;31.35;17.70;;;8.20;99.90;;;;;;5135075;27;20058;-66
2022/01/04 07:10:34;;;;;;;29.35;18.73;;;8.20;99.90;;;;;;5119672;27;20150;-66
2022/01/04 07:13:00;;;;;;;27.73;17.70;;;8.20;99.90;;;;;;5113741;27;20465;-67
2022/01/04 07:15:25;;;;;;;29.20;19.30;;;8.20;99.90;;;;;;5112630;28;20054;-67
2022/01/04 07:17:51;;;;;;;29.75;19.08;;;8.20;99.90;;;;;;5115651;27;20031;-67
2022/01/04 07:20:17;;;;;;;32.22;17.95;;;8.20;99.90;;;;;;5118442;27;20363;-67
2022/01/04 07:22:42;;;;;;;29.85;18.15;;;8.20;99.90;;;;;;5118471;27;20054;-67
2022/01/04 07:25:09;;;;;;;28.05;18.30;;;8.20;99.90;;;;;;5114202;28;20035;-67
2022/01/04 07:27:34;;;;;;;25.67;18.27;;;8.20;99.90;;;;;;5116733;27;20047;-66
2022/01/04 07:30:00;;;;;;;30.85;19.55;;;8.20;99.90;;;;;;5134455;27;20035;-66
2022/01/04 07:32:26;;;;;;;29.25;19.23;;;8.20;99.90;;;;;;5133225;27;20054;-67
2022/01/04 07:34:52;;;;;;;29.85;18.48;;;8.20;99.90;;;;;;5134693;27;20440;-67
2022/01/04 07:37:17;;;;;;;27.30;19.45;;;8.20;99.90;;;;;;5134560;27;20122;-66
2022/01/04 07:39:43;;;;;;;32.28;19.75;;;8.30;99.90;;;;;;5116950;27;20447;-66
2022/01/04 07:42:09;;;;;;;29.15;19.58;;;8.20;99.90;;;;;;5105087;28;20045;-67
2022/01/04 07:44:34;;;;;;;30.20;19.67;;;8.20;99.90;;;;;;5114009;28;20064;-67
2022/01/04 07:47:00;;;;;;;26.48;19.23;;;8.20;99.90;;;;;;5096035;28;20039;-67
2022/01/04 07:49:26;;;;;;;31.38;19.73;;;8.20;99.90;;;;;;5113751;28;20120;-67
2022/01/04 07:51:52;;;;;;;32.03;20.00;;;8.20;99.90;;;;;;5103182;28;20329;-66
2022/01/04 07:54:18;;;;;;;27.15;17.23;;;8.20;99.90;;;;;;5116203;27;20035;-67
2022/01/04 07:56:44;;;;;;;32.25;19.30;;;8.20;99.90;;;;;;5108283;28;20135;-67
2022/01/04 07:59:11;;;;;;;24.88;17.50;;;8.20;99.90;;;;;;5114006;28;20130;-67
2022/01/04 08:01:37;;;;;;;28.23;17.35;;;8.20;99.90;;;;;;5119291;28;20039;-67
2022/01/04 08:04:04;;;;;;;30.75;18.13;;;8.20;99.90;;;;;;5116034;28;20444;-67
2022/01/04 08:06:31;;;;;;;27.63;17.67;;;8.20;99.90;;;;;;5134457;28;20170;-66
2022/01/04 08:09:00;;;;;;;26.70;16.52;;;8.20;99.90;;;;;;5116811;27;20046;-67
2022/01/04 08:11:26;;;;;;;29.05;17.73;;;8.20;99.90;;;;;;5119182;27;20034;-67
2022/01/04 08:13:52;;;;;;;26.33;17.58;;;8.10;99.90;;;;;;5138317;27;20093;-68
2022/01/04 08:16:20;;;;;;;30.13;17.98;;;8.20;99.90;;;;;;5114555;27;20367;-70
2022/01/04 08:18:46;;;;;;;28.30;17.98;;;8.20;99.90;;;;;;5138095;27;20031;-66
2022/01/04 08:21:11;;;;;;;31.55;18.88;;;8.10;99.90;;;;;;5118704;27;20053;-67
2022/01/04 08:23:37;;;;;;;28.92;17.83;;;8.10;99.90;;;;;;5138346;27;20312;-68
2022/01/04 08:26:04;;;;;;;32.45;19.30;;;8.10;99.90;;;;;;5119785;27;20043;-69
2022/01/04 08:28:29;;;;;;;29.70;18.83;;;8.00;99.90;;;;;;5095821;27;20062;-68
2022/01/04 08:30:55;;;;;;;29.17;18.33;;;8.10;99.90;;;;;;5113793;27;20039;-69
2022/01/04 08:33:21;;;;;;;29.13;18.33;;;8.10;99.90;;;;;;5137097;27;20122;-70
2022/01/04 08:35:47;;;;;;;30.58;18.88;;;8.00;99.90;;;;;;5102528;27;20117;-69
2022/01/04 08:38:13;;;;;;;28.42;18.80;;;8.00;99.90;;;;;;5138169;27;20051;-68
2022/01/04 08:40:39;;;;;;;27.48;17.75;;;8.00;99.90;;;;;;5137407;27;20027;-68
2022/01/04 08:43:05;;;;;;;31.55;18.92;;;8.10;99.90;;;;;;5101517;27;20458;-68
2022/01/04 08:45:31;;;;;;;26.50;17.73;;;8.10;99.90;;;;;;5119819;27;20084;-69
2022/01/04 08:47:56;;;;;;;30.42;19.60;;;8.10;99.90;;;;;;5112335;27;20252;-69
2022/01/04 08:50:22;;;;;;;35.15;19.73;;;8.10;99.90;;;;;;5109505;27;20066;-69
2022/01/04 08:52:54;;;;;;;33.38;19.38;;;8.00;99.90;;;;;;5118698;27;20046;-69
2022/01/04 08:55:20;;;;;;;30.65;18.63;;;8.10;99.90;;;;;;5119610;27;20122;-68
2022/01/04 08:57:46;;;;;;;28.17;19.52;;;8.20;99.90;;;;;;5102692;28;20043;-69
2022/01/04 09:00:12;;;;;;;28.42;19.58;;;8.10;99.90;;;;;;5131657;27;20035;-69
2022/01/04 09:02:38;;;;;;;34.22;19.73;;;8.20;99.90;;;;;;5104809;28;20044;-68
2022/01/04 09:05:05;;;;;;;39.03;23.60;;;8.20;99.90;;;;;;5137307;27;20027;-68
2022/01/04 09:07:31;;;;;;;47.97;23.20;;;8.10;99.90;;;;;;5120017;27;20112;-65
2022/01/04 09:09:56;;;;;;;19.38;10.95;;;8.20;99.90;;;;;;5119578;27;20443;-67
2022/01/04 09:12:31;;;;;;;16.80;9.68;;;8.20;99.90;;;;;;5107594;28;20116;-68
2022/01/04 09:15:05;;;;;;;11.90;6.82;;;8.20;99.90;;;;;;5113497;27;20101;-67
2022/01/04 09:20:18;;;;;;;20.75;11.07;;;8.10;99.90;;;;;;5120095;27;20103;-66
2022/01/04 09:22:45;;;;;;;14.38;6.65;;;8.00;99.90;;;;;;5120327;27;20039;-67
2022/01/04 09:25:11;;;;;;;8.63;4.10;;;8.00;99.90;;;;;;5120429;27;20042;-67
2022/01/04 09:27:38;;;;;;;6.72;2.60;;;7.90;99.90;;;;;;5120460;27;20042;-68
2022/01/04 09:30:05;;;;;;;9.35;2.42;;;7.80;99.90;;;;;;5120045;27;20035;-68
2022/01/04 09:32:32;;;;;;;14.93;2.50;;;7.80;99.90;;;;;;5089569;28;20042;-67
2022/01/04 09:34:59;;;;;;;14.20;2.97;;;7.80;99.90;;;;;;5115911;28;20050;-69
2022/01/04 09:37:25;;;;;;;11.60;3.15;;;7.70;99.90;;;;;;5098442;28;20050;-68
2022/01/04 09:39:51;;;;;;;7.28;2.30;;;7.70;99.90;;;;;;5098793;28;20036;-67
2022/01/04 09:42:19;;;;;;;23.05;3.63;;;7.70;99.90;;;;;;5098849;28;20522;-67
2022/01/04 09:44:45;;;;;;;18.27;3.88;;;7.80;99.90;;;;;;5107448;27;20395;-67
2022/01/04 09:47:14;;;;;;;12.57;3.22;;;7.80;99.90;;;;;;5118797;27;20035;-67
2022/01/04 09:49:39;;;;;;;9.95;2.40;;;7.70;99.90;;;;;;5136682;27;20042;-67
2022/01/04 09:52:09;;;;;;;7.90;2.10;;;7.70;99.90;;;;;;5117239;27;20043;-68
2022/01/04 09:54:38;;;;;;;7.78;2.70;;;7.70;99.90;;;;;;5118469;27;20122;-67
2022/01/04 09:57:04;;;;;;;8.18;2.47;;;7.80;99.90;;;;;;5090948;28;20053;-67
2022/01/04 09:59:30;;;;;;;6.15;2.13;;;7.70;99.90;;;;;;5097589;28;20066;-67
2022/01/04 10:02:02;;;;;;;8.40;2.63;;;7.70;99.90;;;;;;5122611;27;20039;-68
2022/01/04 10:04:27;;;;;;;10.25;2.80;;;7.80;99.90;;;;;;5118533;27;20035;-68
2022/01/04 10:07:05;;;;;;;12.18;3.30;;;7.80;99.90;;;;;;5099107;27;20050;-68
2022/01/04 10:09:46;;;;;;;9.20;2.90;;;7.80;99.90;;;;;;5134956;27;20125;-68
2022/01/04 10:12:14;;;;;;;10.68;3.42;;;7.80;99.90;;;;;;5135335;27;20047;-68
2022/01/04 10:14:45;;;;;;;13.05;4.25;;;7.90;99.90;;;;;;5135862;27;20508;-68
2022/01/04 10:17:15;;;;;;;16.00;4.55;;;7.90;99.90;;;;;;5117975;27;20065;-68
2022/01/04 10:20:07;;;;;;;15.05;4.32;;;7.90;99.90;;;;;;5118020;27;20046;-68
2022/01/04 10:22:35;;;;;;;12.23;4.38;;;8.00;99.90;;;;;;5100307;28;20120;-68
2022/01/04 10:25:00;;;;;;;10.10;4.32;;;8.00;99.90;;;;;;5097202;28;20073;-68
2022/01/04 10:27:34;;;;;;;13.02;4.10;;;8.00;99.90;;;;;;5097432;28;20047;-67
2022/01/04 10:30:11;;;;;;;15.15;4.95;;;8.00;99.90;;;;;;5097616;28;20050;-67
2022/01/04 10:32:47;;;;;;;13.25;4.07;;;8.10;99.90;;;;;;5111037;27;20078;-67
2022/01/04 10:35:32;;;;;;;13.35;3.70;;;8.10;99.90;;;;;;5101900;27;20043;-68
2022/01/04 10:38:10;;;;;;;13.70;4.18;;;8.00;99.90;;;;;;5102011;27;20050;-68
2022/01/04 10:40:36;;;;;;;13.75;3.75;;;7.90;99.90;;;;;;5119254;27;20428;-68
2022/01/04 10:43:11;;;;;;;8.25;3.10;;;7.90;99.90;;;;;;5136664;27;20074;-69
2022/01/04 10:45:38;;;;;;;10.35;2.30;;;7.80;99.90;;;;;;5118335;27;20039;-68
2022/01/04 10:48:15;;;;;;;10.68;2.42;;;7.80;99.90;;;;;;5117640;27;20520;-69
2022/01/04 10:50:42;;;;;;;6.95;2.17;;;7.70;99.90;;;;;;5117072;27;20039;-69
2022/01/04 10:53:26;;;;;;;8.25;2.20;;;7.70;99.90;;;;;;5116383;27;20161;-70
2022/01/04 10:56:00;;;;;;;7.20;2.72;;;7.60;99.90;;;;;;5116887;27;20108;-68
2022/01/04 10:58:30;;;;;;;6.15;2.20;;;7.60;99.90;;;;;;5096201;28;20044;-67
2022/01/04 11:01:07;;;;;;;7.00;2.00;;;7.60;99.90;;;;;;5096334;28;20477;-68
2022/01/04 11:03:35;;;;;;;6.85;1.83;;;7.60;99.90;;;;;;5134943;27;20039;-69
2022/01/04 11:06:14;;;;;;;8.35;1.90;;;7.50;99.90;;;;;;5117124;27;20115;-68
2022/01/04 11:08:42;;;;;;;5.88;1.70;;;7.50;99.90;;;;;;5099973;27;20042;-69
2022/01/04 11:11:08;;;;;;;6.65;1.98;;;7.40;99.90;;;;;;5099404;27;20532;-68
2022/01/04 11:13:34;;;;;;;6.30;1.90;;;7.40;99.90;;;;;;5134633;27;20075;-68
2022/01/04 11:16:01;;;;;;;6.15;1.98;;;7.40;99.90;;;;;;5116696;27;20043;-69
2022/01/04 11:18:28;;;;;;;6.20;1.63;;;7.40;99.90;;;;;;5117044;27;20441;-69
2022/01/04 11:20:55;;;;;;;7.72;1.88;;;7.40;99.90;;;;;;5133943;27;20118;-68
2022/01/04 11:23:28;;;;;;;6.57;2.00;;;7.40;99.90;;;;;;5115828;27;20532;-69
2022/01/04 11:25:54;;;;;;;5.72;1.83;;;7.40;99.90;;;;;;5116691;27;20043;-69
2022/01/04 11:28:20;;;;;;;9.45;2.53;;;7.40;99.90;;;;;;5116648;27;20039;-69
2022/01/04 11:31:05;;;;;;;7.68;2.00;;;7.40;99.90;;;;;;5116187;27;20079;-68
2022/01/04 11:33:46;;;;;;;10.00;2.25;;;7.30;99.90;;;;;;5096555;28;20043;-69
2022/01/04 11:36:13;;;;;;;6.55;1.80;;;7.20;99.90;;;;;;5096115;28;20074;-69
2022/01/04 11:38:39;;;;;;;8.25;2.00;;;7.30;99.90;;;;;;5078883;28;20505;-69
2022/01/04 11:41:05;;;;;;;6.20;1.60;;;7.20;99.90;;;;;;5095699;28;20071;-69
2022/01/04 11:43:40;;;;;;;3.75;1.33;;;7.10;99.90;;;;;;5104333;27;20080;-69
2022/01/04 11:46:06;;;;;;;5.95;1.30;;;6.90;99.90;;;;;;5116223;27;20092;-69
2022/01/04 11:48:36;;;;;;;3.10;1.15;;;6.80;99.90;;;;;;5116275;27;20456;-69
2022/01/04 11:51:05;;;;;;;5.18;0.90;;;6.70;99.90;;;;;;5115909;28;20039;-69
2022/01/04 11:53:33;;;;;;;4.47;0.95;;;6.60;99.90;;;;;;5096543;28;20043;-68
2022/01/04 11:56:03;;;;;;;2.60;0.60;;;6.60;99.90;;;;;;5128059;27;20031;-68
2022/01/04 11:58:46;;;;;;;2.92;0.90;;;6.60;99.90;;;;;;5134178;27;20054;-68
2022/01/04 12:01:16;;;;;;;3.13;0.77;;;6.60;99.90;;;;;;5115129;28;20134;-68
2022/01/04 12:03:43;;;;;;;3.30;0.90;;;6.70;99.90;;;;;;5095808;28;20129;-69
2022/01/04 12:06:10;;;;;;;2.97;0.77;;;6.60;99.90;;;;;;5103719;28;20035;-68
2022/01/04 12:08:47;;;;;;;4.15;1.10;;;6.60;99.90;;;;;;5113918;28;20379;-68
2022/01/04 12:11:24;;;;;;;4.30;0.88;;;6.60;99.90;;;;;;5112465;28;20067;-68
2022/01/04 12:13:51;;;;;;;3.65;1.15;;;6.50;99.90;;;;;;5093862;28;20052;-68
2022/01/04 12:16:38;;;;;;;3.10;0.70;;;6.40;99.90;;;;;;5098766;28;20050;-68
2022/01/04 12:19:05;;;;;;;2.60;0.95;;;6.40;99.90;;;;;;5113713;28;20047;-68
2022/01/04 12:21:37;;;;;;;2.53;0.85;;;6.40;99.90;;;;;;5112454;28;20168;-68
2022/01/04 12:24:04;;;;;;;2.08;0.60;;;6.40;99.90;;;;;;5114632;28;20043;-68
2022/01/04 12:26:34;;;;;;;7.20;1.00;;;6.40;99.90;;;;;;5115875;28;20497;-67
2022/01/04 12:28:59;;;;;;;3.53;0.80;;;6.40;99.90;;;;;;5099147;28;20092;-67
2022/01/04 12:31:51;;;;;;;6.28;1.23;;;6.40;99.90;;;;;;5113078;28;20043;-68
2022/01/04 12:34:37;;;;;;;6.90;0.95;;;6.30;99.90;;;;;;5095519;28;20046;-67
2022/01/04 12:37:05;;;;;;;4.03;1.05;;;6.20;99.90;;;;;;5095416;28;20064;-68
2022/01/04 12:39:41;;;;;;;4.30;0.95;;;6.30;99.90;;;;;;5095414;28;20048;-68
2022/01/04 12:42:09;;;;;;;7.90;1.30;;;6.30;99.90;;;;;;5102528;28;20049;-67
2022/01/04 12:44:36;;;;;;;4.13;1.00;;;6.30;99.90;;;;;;5099004;28;20369;-68
2022/01/04 12:47:02;;;;;;;5.32;1.10;;;6.40;99.90;;;;;;5098545;28;20510;-69
2022/01/04 12:49:30;;;;;;;5.47;1.05;;;6.40;99.90;;;;;;5115632;28;20139;-68
2022/01/04 12:52:02;;;;;;;6.85;1.13;;;6.40;99.90;;;;;;5108987;28;20474;-69
2022/01/04 12:54:34;;;;;;;5.03;0.98;;;6.50;99.90;;;;;;5078646;28;20395;-68